Time;durP1;ratioP1;P1;durP2;ratioP2;P2;SDS_P1;SDS_P2;PMS_P1;PMS_P2;Temp;Humidity;BMP_temperature;BMP_pressure;BME280_temperature;BME280_humidity;BME280_pressure;Samples;Min_cycle;Max_cycle;Signal;HPM_P1;HPM_P2
2022/03/18 00:01:49;;;;;;;10.13;3.35;;;;;;;;;;5049132;28;20086;-64
2022/03/18 00:04:15;;;;;;;9.43;2.90;;;;;;;;;;5048643;28;20025;-63
2022/03/18 00:06:41;;;;;;;9.95;2.70;;;;;;;;;;5051268;28;20036;-63
2022/03/18 00:09:06;;;;;;;10.77;3.20;;;;;;;;;;5048524;28;20029;-64
2022/03/18 00:11:32;;;;;;;10.20;3.15;;;;;;;;;;5033811;28;20394;-64
2022/03/18 00:13:58;;;;;;;9.35;3.08;;;;;;;;;;5056282;28;20371;-64
2022/03/18 00:16:24;;;;;;;7.38;2.50;;;;;;;;;;5051019;28;20087;-63
2022/03/18 00:18:50;;;;;;;10.90;3.28;;;;;;;;;;5047292;28;20467;-62
2022/03/18 00:21:16;;;;;;;9.43;2.92;;;;;;;;;;5048040;28;20052;-62
2022/03/18 00:23:41;;;;;;;9.05;3.00;;;;;;;;;;5049041;28;20033;-62
2022/03/18 00:26:07;;;;;;;11.57;3.00;;;;;;;;;;5050362;28;20439;-62
2022/03/18 00:28:32;;;;;;;8.43;2.55;;;;;;;;;;5049307;28;20088;-62
2022/03/18 00:30:58;;;;;;;10.25;2.65;;;;;;;;;;5046982;28;20033;-62
2022/03/18 00:33:24;;;;;;;7.65;2.70;;;;;;;;;;5049096;28;20118;-62
2022/03/18 00:35:49;;;;;;;7.28;2.95;;;;;;;;;;5048490;28;20091;-64
2022/03/18 00:38:15;;;;;;;7.05;2.47;;;;;;;;;;5050046;28;20021;-62
2022/03/18 00:40:40;;;;;;;8.55;2.70;;;;;;;;;;5040628;28;20025;-61
2022/03/18 00:43:06;;;;;;;9.00;3.22;;;;;;;;;;5050138;28;20040;-62
2022/03/18 00:45:32;;;;;;;10.25;3.15;;;;;;;;;;5036707;28;20036;-62
2022/03/18 00:53:25;;;;;;;6.30;3.13;;;;;;;;;;5049930;28;20055;-63
2022/03/18 00:55:51;;;;;;;7.93;3.63;;;;;;;;;;5046880;28;20514;-63
2022/03/18 00:58:16;;;;;;;8.18;3.10;;;;;;;;;;5049613;28;20040;-63
2022/03/18 01:00:42;;;;;;;8.40;2.97;;;;;;;;;;5047382;28;20116;-62
2022/03/18 01:03:07;;;;;;;9.60;3.25;;;;;;;;;;5050440;28;20029;-62
2022/03/18 01:05:33;;;;;;;6.75;2.97;;;;;;;;;;5045958;28;20036;-63
2022/03/18 01:07:59;;;;;;;7.63;3.13;;;;;;;;;;5035447;28;20112;-63
2022/03/18 01:10:24;;;;;;;6.35;3.72;;;;;;;;;;5043045;28;20390;-63
2022/03/18 01:12:49;;;;;;;6.90;3.05;;;;;;;;;;5050757;28;20041;-63
2022/03/18 01:15:15;;;;;;;10.55;3.30;;;;;;;;;;5042333;28;20489;-63
2022/03/18 01:17:40;;;;;;;6.57;2.88;;;;;;;;;;5049346;28;20032;-62
2022/03/18 01:20:06;;;;;;;8.40;2.90;;;;;;;;;;5048017;28;20041;-64
2022/03/18 01:22:32;;;;;;;10.75;3.33;;;;;;;;;;5048739;28;20041;-64
2022/03/18 01:24:57;;;;;;;9.32;3.10;;;;;;;;;;5037031;28;20699;-62
2022/03/18 01:27:23;;;;;;;11.80;2.95;;;;;;;;;;5048141;28;20037;-63
2022/03/18 01:29:48;;;;;;;10.85;3.10;;;;;;;;;;5046596;28;20032;-62
2022/03/18 01:32:14;;;;;;;8.65;3.00;;;;;;;;;;5049962;28;20485;-63
2022/03/18 01:34:39;;;;;;;11.68;3.13;;;;;;;;;;5046902;28;20083;-62
2022/03/18 01:37:05;;;;;;;9.68;3.28;;;;;;;;;;5047465;28;20026;-63
2022/03/18 01:39:30;;;;;;;8.13;3.70;;;;;;;;;;5047398;28;20123;-63
2022/03/18 01:41:55;;;;;;;8.32;3.33;;;;;;;;;;5049083;28;20072;-62
2022/03/18 01:44:21;;;;;;;14.45;3.67;;;;;;;;;;5047023;28;20037;-62
2022/03/18 01:46:47;;;;;;;8.98;3.40;;;;;;;;;;5048603;28;20073;-62
2022/03/18 01:49:12;;;;;;;10.93;4.10;;;;;;;;;;5047255;28;20099;-63
2022/03/18 01:51:39;;;;;;;10.15;3.72;;;;;;;;;;5051109;28;20462;-63
2022/03/18 01:56:50;;;;;;;12.65;4.32;;;;;;;;;;5049159;28;20072;-62
2022/03/18 01:59:16;;;;;;;9.73;4.30;;;;;;;;;;5038132;28;20112;-63
2022/03/18 02:01:41;;;;;;;9.52;3.42;;;;;;;;;;5048663;28;21351;-63
2022/03/18 02:04:08;;;;;;;11.68;3.90;;;;;;;;;;5046438;28;20036;-63
2022/03/18 02:06:34;;;;;;;9.50;3.15;;;;;;;;;;5050784;28;20131;-63
2022/03/18 02:08:59;;;;;;;11.55;3.20;;;;;;;;;;5037426;28;20654;-64
2022/03/18 02:11:26;;;;;;;7.70;2.80;;;;;;;;;;5051048;28;20127;-63
2022/03/18 02:13:56;;;;;;;10.98;3.08;;;;;;;;;;5052533;28;20033;-62
2022/03/18 02:16:21;;;;;;;8.13;2.93;;;;;;;;;;5054565;28;20116;-62
2022/03/18 02:18:47;;;;;;;8.75;2.50;;;;;;;;;;5040736;28;20370;-62
2022/03/18 02:21:14;;;;;;;7.97;2.95;;;;;;;;;;5047129;28;20127;-64
2022/03/18 02:23:40;;;;;;;8.57;2.78;;;;;;;;;;5049851;28;20037;-62
2022/03/18 02:26:06;;;;;;;10.10;2.60;;;;;;;;;;5051837;28;20458;-62
2022/03/18 02:28:31;;;;;;;8.57;2.60;;;;;;;;;;5053014;28;20037;-63
2022/03/18 02:30:57;;;;;;;10.80;3.22;;;;;;;;;;5052322;28;20033;-64
2022/03/18 02:33:23;;;;;;;7.32;2.95;;;;;;;;;;5052102;28;20029;-63
2022/03/18 02:35:53;;;;;;;9.52;2.65;;;;;;;;;;5050180;28;20029;-62
2022/03/18 02:38:19;;;;;;;13.07;3.10;;;;;;;;;;5049228;28;20044;-65
2022/03/18 02:40:44;;;;;;;5.50;2.30;;;;;;;;;;5041563;28;20037;-62
2022/03/18 02:43:10;;;;;;;7.78;2.65;;;;;;;;;;5052469;28;20029;-62
2022/03/18 02:45:35;;;;;;;7.15;2.33;;;;;;;;;;5051973;28;20381;-63
2022/03/18 02:48:01;;;;;;;7.22;2.40;;;;;;;;;;5051855;28;20040;-63
2022/03/18 02:50:26;;;;;;;9.13;2.60;;;;;;;;;;5051037;28;20478;-64
2022/03/18 02:52:52;;;;;;;8.32;3.10;;;;;;;;;;5051258;28;20029;-63
2022/03/18 02:55:18;;;;;;;10.18;2.67;;;;;;;;;;5049169;28;20037;-63
2022/03/18 02:57:44;;;;;;;9.18;2.47;;;;;;;;;;5049764;28;20029;-64
2022/03/18 03:00:10;;;;;;;10.05;2.80;;;;;;;;;;5052241;28;20066;-63
2022/03/18 03:02:36;;;;;;;11.43;2.58;;;;;;;;;;5052699;28;20029;-64
2022/03/18 03:07:59;;;;;;;9.25;2.88;;;;;;;;;;5044802;28;20401;-63
2022/03/18 03:10:25;;;;;;;5.75;2.17;;;;;;;;;;5034680;28;20128;-62
2022/03/18 03:12:51;;;;;;;5.97;2.50;;;;;;;;;;5036523;28;20150;-62
2022/03/18 03:15:17;;;;;;;11.23;2.90;;;;;;;;;;5051251;28;20056;-62
2022/03/18 03:17:43;;;;;;;8.35;2.60;;;;;;;;;;5050724;28;20486;-62
2022/03/18 03:20:09;;;;;;;13.52;4.20;;;;;;;;;;5050986;28;20059;-62
2022/03/18 03:22:37;;;;;;;11.52;5.03;;;;;;;;;;5051668;28;20075;-64
2022/03/18 03:25:03;;;;;;;10.98;4.90;;;;;;;;;;5047484;28;20135;-63
2022/03/18 03:27:29;;;;;;;15.88;5.70;;;;;;;;;;5051341;28;20124;-63
2022/03/18 03:30:06;;;;;;;11.50;5.72;;;;;;;;;;5047968;28;20040;-63
2022/03/18 03:32:31;;;;;;;15.48;6.22;;;;;;;;;;5051498;28;20028;-63
2022/03/18 03:34:57;;;;;;;11.75;5.70;;;;;;;;;;5049137;28;20385;-63
2022/03/18 03:37:23;;;;;;;13.43;6.28;;;;;;;;;;5050160;28;20025;-63
2022/03/18 03:39:50;;;;;;;14.45;6.25;;;;;;;;;;5048561;28;20089;-63
2022/03/18 03:42:17;;;;;;;17.38;6.43;;;;;;;;;;5035649;28;20061;-63
2022/03/18 03:44:42;;;;;;;13.77;5.97;;;;;;;;;;5051954;28;20037;-63
2022/03/18 03:47:10;;;;;;;13.38;5.88;;;;;;;;;;5050935;28;20485;-63
2022/03/18 03:49:39;;;;;;;15.73;6.15;;;;;;;;;;5050566;28;20532;-63
2022/03/18 03:52:04;;;;;;;14.43;6.22;;;;;;;;;;5047563;28;20041;-63
2022/03/18 03:54:30;;;;;;;13.52;5.80;;;;;;;;;;5049405;28;20510;-63
2022/03/18 03:56:55;;;;;;;12.98;5.75;;;;;;;;;;5048047;28;20029;-64
2022/03/18 03:59:22;;;;;;;11.48;5.15;;;;;;;;;;5050961;28;20433;-63
2022/03/18 04:01:48;;;;;;;13.32;5.53;;;;;;;;;;5051902;28;20104;-63
2022/03/18 04:04:13;;;;;;;14.38;5.78;;;;;;;;;;5049989;28;20171;-63
2022/03/18 04:06:39;;;;;;;12.75;6.50;;;;;;;;;;5050775;28;20033;-62
2022/03/18 04:09:04;;;;;;;14.07;5.60;;;;;;;;;;5050049;28;20119;-62
2022/03/18 04:11:30;;;;;;;9.40;5.20;;;;;;;;;;5047244;28;20044;-62
2022/03/18 04:13:55;;;;;;;13.07;5.50;;;;;;;;;;5046503;28;20108;-62
2022/03/18 04:16:21;;;;;;;14.32;6.13;;;;;;;;;;5042418;28;20037;-62
2022/03/18 04:18:47;;;;;;;15.20;6.20;;;;;;;;;;5033347;28;20406;-62
2022/03/18 04:21:13;;;;;;;16.02;6.40;;;;;;;;;;5032946;28;20402;-63
2022/03/18 04:23:39;;;;;;;12.85;5.97;;;;;;;;;;5049858;28;20110;-63
2022/03/18 04:26:05;;;;;;;11.20;6.00;;;;;;;;;;5046287;28;21406;-63
2022/03/18 04:28:30;;;;;;;20.20;6.45;;;;;;;;;;5050761;28;20579;-62
2022/03/18 04:30:56;;;;;;;16.70;5.95;;;;;;;;;;5051297;28;20048;-62
2022/03/18 04:33:21;;;;;;;11.70;5.35;;;;;;;;;;5049735;28;20052;-62
2022/03/18 04:35:47;;;;;;;11.63;4.80;;;;;;;;;;5047945;28;20039;-63
2022/03/18 04:38:12;;;;;;;9.98;5.07;;;;;;;;;;5047688;28;20033;-63
2022/03/18 04:40:37;;;;;;;13.85;4.68;;;;;;;;;;5050654;28;20082;-62
2022/03/18 04:43:03;;;;;;;10.02;5.00;;;;;;;;;;5048254;28;20056;-62
2022/03/18 04:45:28;;;;;;;13.40;4.57;;;;;;;;;;5050743;28;20033;-62
2022/03/18 04:47:54;;;;;;;12.95;5.10;;;;;;;;;;5049929;28;20488;-61
2022/03/18 04:50:20;;;;;;;11.85;5.03;;;;;;;;;;5048019;28;20037;-63
2022/03/18 04:52:45;;;;;;;14.43;4.93;;;;;;;;;;5046781;28;20095;-63
2022/03/18 04:55:11;;;;;;;13.73;4.90;;;;;;;;;;5050408;28;20092;-63
2022/03/18 04:57:37;;;;;;;8.52;4.75;;;;;;;;;;5047636;28;20043;-62
2022/03/18 05:00:05;;;;;;;12.30;5.30;;;;;;;;;;5048313;28;20025;-63
2022/03/18 05:02:31;;;;;;;9.98;5.07;;;;;;;;;;5050034;28;20025;-62
2022/03/18 05:04:56;;;;;;;13.80;5.28;;;;;;;;;;5047793;28;20017;-62
2022/03/18 05:07:22;;;;;;;11.73;5.20;;;;;;;;;;5043168;28;20516;-64
2022/03/18 05:09:48;;;;;;;11.93;5.47;;;;;;;;;;5049911;28;20070;-63
2022/03/18 05:12:16;;;;;;;9.60;4.72;;;;;;;;;;5042217;28;20033;-63
2022/03/18 05:14:42;;;;;;;11.00;4.88;;;;;;;;;;5041829;28;20037;-63
2022/03/18 05:17:09;;;;;;;14.93;6.13;;;;;;;;;;5030913;28;20439;-62
2022/03/18 05:19:35;;;;;;;15.23;6.18;;;;;;;;;;5044812;28;20033;-62
2022/03/18 05:22:01;;;;;;;11.52;5.72;;;;;;;;;;5037656;28;20037;-62
2022/03/18 05:24:26;;;;;;;12.98;5.85;;;;;;;;;;5050258;28;20037;-62
2022/03/18 05:26:56;;;;;;;15.57;6.13;;;;;;;;;;5048509;28;20079;-62
2022/03/18 05:29:22;;;;;;;14.45;6.28;;;;;;;;;;5041695;28;20086;-62
2022/03/18 05:31:48;;;;;;;16.35;6.50;;;;;;;;;;5046018;28;20079;-62
2022/03/18 05:34:14;;;;;;;11.50;6.22;;;;;;;;;;5050534;28;20033;-62
2022/03/18 05:36:41;;;;;;;15.73;6.88;;;;;;;;;;5053563;28;20090;-62
2022/03/18 05:39:06;;;;;;;15.07;6.25;;;;;;;;;;5049850;28;20429;-62
2022/03/18 05:41:31;;;;;;;15.77;7.18;;;;;;;;;;5057480;28;20033;-61
2022/03/18 05:43:57;;;;;;;15.32;6.93;;;;;;;;;;5046196;28;20427;-62
2022/03/18 05:46:23;;;;;;;15.60;6.55;;;;;;;;;;5052049;28;20029;-61
2022/03/18 05:48:49;;;;;;;19.00;7.30;;;;;;;;;;5064096;28;20414;-62
2022/03/18 05:51:15;;;;;;;19.48;7.75;;;;;;;;;;5054825;28;20040;-62
2022/03/18 05:53:41;;;;;;;16.83;7.32;;;;;;;;;;5057090;28;20029;-66
2022/03/18 05:58:50;;;;;;;16.15;8.00;;;;;;;;;;5054671;28;20106;-67
2022/03/18 06:01:16;;;;;;;15.13;7.57;;;;;;;;;;5047088;28;20037;-68
2022/03/18 06:03:42;;;;;;;15.48;7.10;;;;;;;;;;5054550;28;20072;-68
2022/03/18 06:06:08;;;;;;;15.93;7.10;;;;;;;;;;5058672;28;20040;-69
2022/03/18 06:11:51;;;;;;;17.88;8.35;;;;;;;;;;5053753;28;20115;-68
2022/03/18 06:14:08;;;;;;;16.33;8.32;;;;;;;;;;5050783;28;20088;-72
2022/03/18 06:16:34;;;;;;;16.48;8.13;;;;;;;;;;5057600;28;20057;-73
2022/03/18 06:19:00;;;;;;;17.20;8.25;;;;;;;;;;5053378;28;20033;-72
2022/03/18 06:21:26;;;;;;;16.83;7.47;;;;;;;;;;5053842;28;20546;-74
2022/03/18 06:23:52;;;;;;;19.38;8.68;;;;;;;;;;5054543;28;20040;-72
2022/03/18 06:26:17;;;;;;;16.42;8.60;;;;;;;;;;5053312;28;20028;-73
2022/03/18 06:28:42;;;;;;;26.45;9.27;;;;;;;;;;5054236;28;20025;-75
2022/03/18 06:31:09;;;;;;;17.48;8.38;;;;;;;;;;5050868;28;20033;-67
2022/03/18 06:33:41;;;;;;;15.63;8.23;;;;;;;;;;5056827;28;20024;-72
2022/03/18 06:36:07;;;;;;;14.13;8.52;;;;;;;;;;5058475;28;20025;-73
2022/03/18 06:38:33;;;;;;;19.95;8.70;;;;;;;;;;5054251;28;20468;-75
2022/03/18 06:40:58;;;;;;;18.92;8.48;;;;;;;;;;5053276;28;20470;-69
2022/03/18 06:43:24;;;;;;;16.90;9.15;;;;;;;;;;5054041;28;20033;-73
2022/03/18 06:45:50;;;;;;;21.20;9.35;;;;;;;;;;5053889;28;20064;-74
2022/03/18 06:48:15;;;;;;;19.35;10.30;;;;;;;;;;5051802;28;20144;-73
2022/03/18 06:50:41;;;;;;;16.83;9.52;;;;;;;;;;5053767;28;20072;-73
2022/03/18 06:53:07;;;;;;;16.60;10.15;;;;;;;;;;5053084;28;20406;-76
2022/03/18 06:55:32;;;;;;;19.50;9.73;;;;;;;;;;5056159;28;20045;-75
2022/03/18 06:57:58;;;;;;;15.98;9.50;;;;;;;;;;5054663;28;20119;-67
2022/03/18 07:00:23;;;;;;;22.90;10.05;;;;;;;;;;5054770;28;20040;-72
2022/03/18 07:02:49;;;;;;;18.63;10.13;;;;;;;;;;5054455;28;20021;-73
2022/03/18 07:05:14;;;;;;;19.45;10.20;;;;;;;;;;5051996;28;20125;-72
2022/03/18 07:07:40;;;;;;;18.10;10.65;;;;;;;;;;5053687;28;20036;-71
2022/03/18 07:10:06;;;;;;;20.88;9.85;;;;;;;;;;5052306;28;20440;-71
2022/03/18 07:12:31;;;;;;;18.95;8.98;;;;;;;;;;5053301;28;20478;-69
2022/03/18 07:14:57;;;;;;;17.50;9.02;;;;;;;;;;5052860;28;20111;-67
2022/03/18 07:20:07;;;;;;;15.20;8.60;;;;;;;;;;5051858;28;20044;-73
2022/03/18 07:22:33;;;;;;;17.88;8.82;;;;;;;;;;5035769;28;20052;-73
2022/03/18 07:24:58;;;;;;;16.48;8.50;;;;;;;;;;5052570;28;20041;-69
2022/03/18 07:27:23;;;;;;;19.25;7.78;;;;;;;;;;5052131;28;20387;-71
2022/03/18 07:29:49;;;;;;;15.00;8.07;;;;;;;;;;5053340;28;20112;-72
2022/03/18 07:32:15;;;;;;;16.40;8.27;;;;;;;;;;5050734;28;20076;-73
2022/03/18 07:34:40;;;;;;;17.45;7.88;;;;;;;;;;5053134;28;20032;-73
2022/03/18 07:37:06;;;;;;;14.27;7.13;;;;;;;;;;5050967;28;20382;-71
2022/03/18 07:39:31;;;;;;;15.30;7.60;;;;;;;;;;5052584;28;20108;-71
2022/03/18 07:41:57;;;;;;;18.52;8.77;;;;;;;;;;5046029;28;20188;-68
2022/03/18 07:44:22;;;;;;;18.95;8.63;;;;;;;;;;5053416;28;20036;-73
2022/03/18 07:46:47;;;;;;;15.75;8.18;;;;;;;;;;5052493;28;20033;-71
2022/03/18 07:49:13;;;;;;;18.88;8.50;;;;;;;;;;5051565;28;20098;-66
2022/03/18 07:51:38;;;;;;;18.75;9.20;;;;;;;;;;5052583;28;20441;-66
2022/03/18 07:54:04;;;;;;;21.35;9.77;;;;;;;;;;5051422;28;20055;-76
2022/03/18 07:56:30;;;;;;;18.30;8.50;;;;;;;;;;5061462;28;20112;-69
2022/03/18 07:58:55;;;;;;;16.80;8.23;;;;;;;;;;5059643;28;20167;-70
2022/03/18 08:01:21;;;;;;;15.52;8.70;;;;;;;;;;5051762;28;20461;-70
2022/03/18 08:03:46;;;;;;;16.23;8.98;;;;;;;;;;5052430;28;20041;-68
2022/03/18 08:06:11;;;;;;;19.33;8.25;;;;;;;;;;5051051;28;20372;-67
2022/03/18 08:08:37;;;;;;;17.52;8.88;;;;;;;;;;5052801;28;20057;-70
2022/03/18 08:11:04;;;;;;;17.50;8.02;;;;;;;;;;5050784;28;20487;-71
2022/03/18 08:13:29;;;;;;;16.73;8.40;;;;;;;;;;5052351;28;20029;-70
2022/03/18 08:15:55;;;;;;;18.50;8.85;;;;;;;;;;5050271;28;20425;-68
2022/03/18 08:18:21;;;;;;;15.63;8.40;;;;;;;;;;5051143;28;20446;-69
2022/03/18 08:20:53;;;;;;;19.63;8.93;;;;;;;;;;5051155;28;20029;-68
2022/03/18 08:23:19;;;;;;;18.90;8.93;;;;;;;;;;5049879;28;20336;-68
2022/03/18 08:25:44;;;;;;;15.07;7.70;;;;;;;;;;5070444;28;20462;-69
2022/03/18 08:28:10;;;;;;;14.90;8.45;;;;;;;;;;5061750;28;20033;-72
2022/03/18 08:30:36;;;;;;;14.02;7.65;;;;;;;;;;5055287;28;20065;-68
2022/03/18 08:33:02;;;;;;;16.50;7.68;;;;;;;;;;5041398;28;20111;-72
2022/03/18 08:35:28;;;;;;;17.33;7.53;;;;;;;;;;5050670;28;20029;-69
2022/03/18 08:37:58;;;;;;;12.80;6.60;;;;;;;;;;5051942;28;20036;-69
2022/03/18 08:40:27;;;;;;;15.35;7.25;;;;;;;;;;5057482;28;20029;-70
2022/03/18 08:42:54;;;;;;;13.30;6.72;;;;;;;;;;5051425;28;20036;-69
2022/03/18 08:45:20;;;;;;;18.60;6.60;;;;;;;;;;5049177;28;20074;-73
2022/03/18 08:47:46;;;;;;;14.18;6.60;;;;;;;;;;5050865;28;20059;-73
2022/03/18 08:50:13;;;;;;;15.77;6.68;;;;;;;;;;5050508;28;20045;-71
2022/03/18 08:52:39;;;;;;;12.35;6.30;;;;;;;;;;5048268;28;20037;-72
2022/03/18 08:55:07;;;;;;;15.35;6.72;;;;;;;;;;5050776;28;20033;-70
2022/03/18 08:57:35;;;;;;;18.15;6.50;;;;;;;;;;5050936;28;20496;-68
2022/03/18 09:00:00;;;;;;;17.25;7.00;;;;;;;;;;5049033;28;20060;-67
2022/03/18 09:02:26;;;;;;;16.88;6.93;;;;;;;;;;5051040;28;20146;-71
2022/03/18 09:04:52;;;;;;;14.18;5.97;;;;;;;;;;5051218;28;20029;-70
2022/03/18 09:07:18;;;;;;;14.68;5.93;;;;;;;;;;5050210;28;20039;-68
2022/03/18 09:09:44;;;;;;;15.65;5.88;;;;;;;;;;5051378;28;20039;-68
2022/03/18 09:12:09;;;;;;;22.10;6.03;;;;;;;;;;5050360;28;20104;-69
2022/03/18 09:14:35;;;;;;;13.73;5.30;;;;;;;;;;5050884;28;20477;-70
2022/03/18 09:17:00;;;;;;;11.32;5.18;;;;;;;;;;5049777;28;20040;-66
2022/03/18 09:19:26;;;;;;;11.13;4.50;;;;;;;;;;5050480;28;20128;-72
2022/03/18 09:21:51;;;;;;;9.18;4.82;;;;;;;;;;5053020;28;20040;-72
2022/03/18 09:24:17;;;;;;;13.55;4.72;;;;;;;;;;5054334;28;20024;-70
2022/03/18 09:26:42;;;;;;;13.23;4.88;;;;;;;;;;5055577;28;20040;-70
2022/03/18 09:29:08;;;;;;;12.27;4.97;;;;;;;;;;5054210;28;20072;-69
2022/03/18 09:31:33;;;;;;;9.70;5.03;;;;;;;;;;5054738;28;20024;-70
2022/03/18 09:33:59;;;;;;;11.48;5.32;;;;;;;;;;5054845;28;20057;-67
2022/03/18 09:36:25;;;;;;;10.63;4.60;;;;;;;;;;5055313;28;20037;-70
2022/03/18 09:38:50;;;;;;;10.57;4.20;;;;;;;;;;5055462;28;20024;-72
2022/03/18 09:41:16;;;;;;;10.30;4.68;;;;;;;;;;5052804;28;20433;-70
2022/03/18 09:43:43;;;;;;;11.38;4.10;;;;;;;;;;5055707;28;20124;-71
2022/03/18 09:46:20;;;;;;;8.40;4.40;;;;;;;;;;5054044;28;20033;-70
2022/03/18 09:48:45;;;;;;;10.95;3.50;;;;;;;;;;5039206;28;20063;-70
2022/03/18 09:51:11;;;;;;;9.27;3.75;;;;;;;;;;5053978;28;20091;-69
2022/03/18 09:53:36;;;;;;;9.02;4.07;;;;;;;;;;5054545;28;20048;-68
2022/03/18 09:56:03;;;;;;;7.50;3.55;;;;;;;;;;5051975;28;20511;-69
2022/03/18 09:58:29;;;;;;;13.75;4.85;;;;;;;;;;5053542;28;20059;-71
2022/03/18 10:00:58;;;;;;;9.73;4.40;;;;;;;;;;5054957;28;20224;-72
2022/03/18 10:03:34;;;;;;;10.57;4.30;;;;;;;;;;5036710;28;20060;-67
2022/03/18 10:06:03;;;;;;;10.63;4.30;;;;;;;;;;5054377;28;20032;-68
2022/03/18 10:08:41;;;;;;;11.18;4.47;;;;;;;;;;5054147;28;20478;-71
2022/03/18 10:11:21;;;;;;;9.25;4.00;;;;;;;;;;5052717;28;20036;-72
2022/03/18 10:13:53;;;;;;;12.48;4.20;;;;;;;;;;5054406;28;20028;-70
2022/03/18 10:16:36;;;;;;;8.40;3.88;;;;;;;;;;5050962;28;20474;-69
2022/03/18 10:19:09;;;;;;;10.45;3.72;;;;;;;;;;5053267;28;20047;-68
2022/03/18 10:22:00;;;;;;;11.18;3.30;;;;;;;;;;5052547;28;20044;-70
2022/03/18 10:24:31;;;;;;;9.27;3.20;;;;;;;;;;5054328;28;20037;-73
2022/03/18 10:27:21;;;;;;;6.32;3.35;;;;;;;;;;5054507;28;20068;-68
2022/03/18 10:29:54;;;;;;;11.57;3.63;;;;;;;;;;5053861;28;20082;-70
2022/03/18 10:32:25;;;;;;;8.00;3.10;;;;;;;;;;5053067;28;20037;-71
2022/03/18 10:37:44;;;;;;;8.13;3.15;;;;;;;;;;5054131;28;20257;-71
2022/03/18 10:40:11;;;;;;;7.93;3.30;;;;;;;;;;5051724;28;20115;-70
2022/03/18 10:42:37;;;;;;;8.38;3.80;;;;;;;;;;5052845;28;20052;-70
2022/03/18 10:45:03;;;;;;;8.35;3.60;;;;;;;;;;5052752;28;20122;-71
2022/03/18 10:47:33;;;;;;;8.23;3.33;;;;;;;;;;5053269;28;20029;-69
2022/03/18 10:50:11;;;;;;;11.00;3.53;;;;;;;;;;5053769;28;20033;-66
2022/03/18 10:52:41;;;;;;;8.82;3.00;;;;;;;;;;5053526;28;20107;-68
2022/03/18 10:55:23;;;;;;;9.18;3.10;;;;;;;;;;5053444;28;20069;-70
2022/03/18 10:58:06;;;;;;;8.45;3.10;;;;;;;;;;5053558;28;20371;-67
2022/03/18 11:00:35;;;;;;;11.27;3.08;;;;;;;;;;5052517;28;20032;-71
2022/03/18 11:03:01;;;;;;;9.40;3.30;;;;;;;;;;5052450;28;20025;-65
2022/03/18 11:05:41;;;;;;;9.82;3.35;;;;;;;;;;5052164;28;20123;-71
2022/03/18 11:08:11;;;;;;;9.10;3.33;;;;;;;;;;5052361;28;20474;-69
2022/03/18 11:13:28;;;;;;;9.23;3.20;;;;;;;;;;5052913;28;20047;-69
2022/03/18 11:15:54;;;;;;;7.50;3.10;;;;;;;;;;5053402;28;20033;-65
2022/03/18 11:18:20;;;;;;;4.88;2.80;;;;;;;;;;5049293;28;20343;-67
2022/03/18 11:20:50;;;;;;;7.13;3.15;;;;;;;;;;5053394;28;20033;-67
2022/03/18 11:23:18;;;;;;;7.68;3.35;;;;;;;;;;5050538;28;20123;-67
2022/03/18 11:25:46;;;;;;;8.38;3.35;;;;;;;;;;5052886;28;20113;-68
2022/03/18 11:28:17;;;;;;;8.77;3.03;;;;;;;;;;5051535;28;20036;-67
2022/03/18 11:30:44;;;;;;;7.10;3.30;;;;;;;;;;5046098;28;20118;-66
2022/03/18 11:33:09;;;;;;;9.40;3.53;;;;;;;;;;5050744;28;20440;-67
2022/03/18 11:35:50;;;;;;;7.47;3.10;;;;;;;;;;5052855;28;20020;-67
2022/03/18 11:38:26;;;;;;;7.47;3.00;;;;;;;;;;5054538;28;20033;-67
2022/03/18 11:40:53;;;;;;;7.03;3.13;;;;;;;;;;5049792;28;20033;-69
2022/03/18 11:43:50;;;;;;;7.63;3.25;;;;;;;;;;5051471;28;20083;-70
2022/03/18 11:46:16;;;;;;;7.60;3.42;;;;;;;;;;5042455;28;20045;-70
2022/03/18 11:48:46;;;;;;;7.88;3.22;;;;;;;;;;5053007;28;20036;-70
2022/03/18 11:51:39;;;;;;;6.05;3.05;;;;;;;;;;5050641;28;20036;-69
2022/03/18 11:54:07;;;;;;;7.15;2.90;;;;;;;;;;5052132;28;20033;-70
2022/03/18 11:56:54;;;;;;;6.88;3.08;;;;;;;;;;5050380;28;20033;-70
2022/03/18 11:59:25;;;;;;;6.95;2.83;;;;;;;;;;5049893;28;20414;-70
2022/03/18 12:02:07;;;;;;;7.35;3.03;;;;;;;;;;5044011;28;20462;-68
2022/03/18 12:04:45;;;;;;;7.95;3.25;;;;;;;;;;5052443;28;20032;-68
2022/03/18 12:07:24;;;;;;;6.28;2.88;;;;;;;;;;5043229;28;20086;-68
2022/03/18 12:10:10;;;;;;;6.85;3.13;;;;;;;;;;5050457;28;20036;-67
2022/03/18 12:12:48;;;;;;;7.95;3.08;;;;;;;;;;5052711;28;20033;-69
2022/03/18 12:15:18;;;;;;;6.45;3.30;;;;;;;;;;5051387;28;20029;-68
2022/03/18 12:17:47;;;;;;;8.48;3.40;;;;;;;;;;5052499;28;20111;-67
2022/03/18 12:20:18;;;;;;;7.78;3.22;;;;;;;;;;5051540;28;20065;-69
2022/03/18 12:22:44;;;;;;;5.47;2.80;;;;;;;;;;5052249;28;20057;-68
2022/03/18 12:25:12;;;;;;;9.27;3.20;;;;;;;;;;5048967;28;20032;-66
2022/03/18 12:27:39;;;;;;;5.38;3.10;;;;;;;;;;5051906;28;20370;-67
2022/03/18 12:30:08;;;;;;;7.72;2.95;;;;;;;;;;5050930;28;20052;-66
2022/03/18 12:32:38;;;;;;;6.45;3.00;;;;;;;;;;5052504;28;20032;-69
2022/03/18 12:35:04;;;;;;;6.63;2.92;;;;;;;;;;5051202;28;20114;-70
2022/03/18 12:37:31;;;;;;;6.63;3.00;;;;;;;;;;5052156;28;20048;-68
2022/03/18 12:40:01;;;;;;;6.80;3.05;;;;;;;;;;5031271;28;20029;-67
2022/03/18 12:42:26;;;;;;;7.70;3.10;;;;;;;;;;5052128;28;20029;-69
2022/03/18 12:44:57;;;;;;;5.28;2.90;;;;;;;;;;5049646;28;20029;-69
2022/03/18 12:47:23;;;;;;;;;;;;;;;;;;5048275;28;20066;-68
2022/03/18 12:49:51;;;;;;;7.57;2.90;;;;;;;;;;5051009;28;20365;-68
2022/03/18 12:52:16;;;;;;;5.75;2.70;;;;;;;;;;5070874;28;20036;-67
2022/03/18 12:55:05;;;;;;;5.75;2.72;;;;;;;;;;5057340;28;20037;-69
2022/03/18 12:57:37;;;;;;;8.07;2.80;;;;;;;;;;5050832;28;20039;-70
2022/03/18 13:00:04;;;;;;;4.47;2.67;;;;;;;;;;5050171;28;20029;-66
2022/03/18 13:02:29;;;;;;;4.85;2.50;;;;;;;;;;5050931;28;20066;-70
2022/03/18 13:04:57;;;;;;;7.32;2.72;;;;;;;;;;5051082;28;20041;-69
2022/03/18 13:07:25;;;;;;;7.75;2.97;;;;;;;;;;5050128;28;20424;-68
2022/03/18 13:09:50;;;;;;;6.93;2.80;;;;;;;;;;5051638;28;20044;-69
2022/03/18 13:12:23;;;;;;;5.50;2.83;;;;;;;;;;5048953;28;20044;-69
2022/03/18 13:14:53;;;;;;;6.07;2.90;;;;;;;;;;5050778;28;20048;-71
2022/03/18 13:17:34;;;;;;;5.57;2.95;;;;;;;;;;5049788;28;20122;-68
2022/03/18 13:19:59;;;;;;;4.90;2.70;;;;;;;;;;5050663;28;20029;-65
2022/03/18 13:22:28;;;;;;;6.90;2.85;;;;;;;;;;5050969;28;20486;-69
2022/03/18 13:24:55;;;;;;;7.88;2.95;;;;;;;;;;5050904;28;20028;-69
2022/03/18 13:27:21;;;;;;;6.93;3.20;;;;;;;;;;5049772;28;20025;-69
2022/03/18 13:32:51;;;;;;;6.72;3.13;;;;;;;;;;5051263;28;20489;-70
2022/03/18 13:35:18;;;;;;;6.22;3.20;;;;;;;;;;5050372;28;20228;-69
2022/03/18 13:38:03;;;;;;;5.18;3.17;;;;;;;;;;5051447;28;20112;-69
2022/03/18 13:40:29;;;;;;;6.40;3.38;;;;;;;;;;5048629;28;20041;-69
2022/03/18 13:43:04;;;;;;;5.72;3.30;;;;;;;;;;5050481;28;20033;-68
2022/03/18 13:45:31;;;;;;;5.30;3.00;;;;;;;;;;5051124;28;20036;-70
2022/03/18 13:47:56;;;;;;;7.10;3.15;;;;;;;;;;5048837;28;20477;-68
2022/03/18 13:50:22;;;;;;;7.10;3.30;;;;;;;;;;5049396;28;20199;-70
2022/03/18 13:52:48;;;;;;;6.47;3.17;;;;;;;;;;5050421;28;20033;-68
2022/03/18 13:55:34;;;;;;;6.13;3.00;;;;;;;;;;5050231;28;20442;-70
2022/03/18 13:58:04;;;;;;;7.95;3.38;;;;;;;;;;5049581;28;20485;-67
2022/03/18 14:00:32;;;;;;;8.90;3.38;;;;;;;;;;5051245;28;20029;-70
2022/03/18 14:03:11;;;;;;;7.65;3.38;;;;;;;;;;5050377;28;20036;-65
2022/03/18 14:05:37;;;;;;;6.25;3.00;;;;;;;;;;5050688;28;20108;-68
2022/03/18 14:08:04;;;;;;;7.25;3.22;;;;;;;;;;5050348;28;20116;-67
2022/03/18 14:10:38;;;;;;;8.88;3.88;;;;;;;;;;5054328;28;20120;-70
2022/03/18 14:13:10;;;;;;;6.03;2.90;;;;;;;;;;5052081;28;20029;-68
2022/03/18 14:15:49;;;;;;;8.55;3.38;;;;;;;;;;5054865;28;20151;-70
2022/03/18 14:18:17;;;;;;;8.40;3.40;;;;;;;;;;5053681;28;20471;-67
2022/03/18 14:20:52;;;;;;;7.88;3.42;;;;;;;;;;5054317;28;20078;-68
2022/03/18 14:23:26;;;;;;;7.55;3.17;;;;;;;;;;5053577;28;20104;-67
2022/03/18 14:25:53;;;;;;;6.90;3.40;;;;;;;;;;5054264;28;20454;-68
2022/03/18 14:28:20;;;;;;;8.18;3.22;;;;;;;;;;5052910;28;20044;-67
2022/03/18 14:30:47;;;;;;;8.48;3.30;;;;;;;;;;5054354;28;20613;-69
2022/03/18 14:33:14;;;;;;;8.32;2.92;;;;;;;;;;5051667;28;20033;-67
2022/03/18 14:35:40;;;;;;;8.90;3.40;;;;;;;;;;5054205;28;20024;-69
2022/03/18 14:38:07;;;;;;;11.00;3.38;;;;;;;;;;5051922;28;20045;-66
2022/03/18 14:40:33;;;;;;;7.82;3.55;;;;;;;;;;5052593;28;20433;-67
2022/03/18 14:43:00;;;;;;;10.10;3.35;;;;;;;;;;5052919;28;20037;-64
2022/03/18 14:45:26;;;;;;;6.50;3.30;;;;;;;;;;5052920;28;20496;-68
2022/03/18 14:47:51;;;;;;;9.30;3.22;;;;;;;;;;5053728;28;20060;-66
2022/03/18 14:50:17;;;;;;;7.63;3.00;;;;;;;;;;5052082;28;20475;-67
2022/03/18 14:52:43;;;;;;;5.47;3.10;;;;;;;;;;5051667;28;20060;-68
2022/03/18 14:57:54;;;;;;;6.28;3.00;;;;;;;;;;5056703;28;20036;-67
2022/03/18 15:00:25;;;;;;;7.97;3.20;;;;;;;;;;5050573;28;20020;-66
2022/03/18 15:02:52;;;;;;;7.55;3.08;;;;;;;;;;5056309;28;20131;-65
2022/03/18 15:05:17;;;;;;;4.78;2.90;;;;;;;;;;5052643;28;20036;-67
2022/03/18 15:07:43;;;;;;;5.10;2.85;;;;;;;;;;5052346;28;20103;-68
2022/03/18 15:10:09;;;;;;;4.70;2.70;;;;;;;;;;5052622;28;20471;-67